createdAt,value
2019-02-11T06:09:30.070Z,46.50
2019-02-11T06:11:59.120Z,45.80
2019-02-11T06:14:27.949Z,45.90
2019-02-11T06:16:57.134Z,45.90
2019-02-11T06:19:26.056Z,46.00
2019-02-11T06:21:55.180Z,46.00
2019-02-11T06:24:24.276Z,46.00
2019-02-11T06:26:53.601Z,46.10
2019-02-11T06:29:22.392Z,45.90
2019-02-11T06:31:51.371Z,46.00
2019-02-11T06:34:20.088Z,46.50
2019-02-11T06:36:48.923Z,45.60
2019-02-11T06:39:17.712Z,46.40
2019-02-11T06:41:46.436Z,45.70
2019-02-11T06:44:16.708Z,45.70
2019-02-11T06:46:45.405Z,45.70
2019-02-11T06:49:14.219Z,45.50
2019-02-11T06:51:43.050Z,45.70
2019-02-11T06:54:12.271Z,45.60
2019-02-11T06:56:41.647Z,45.50
2019-02-11T06:59:10.953Z,45.40
2019-02-11T07:01:40.152Z,45.60
2019-02-11T07:04:08.656Z,45.30
2019-02-11T07:06:37.360Z,45.20
2019-02-11T07:09:06.364Z,45.10
2019-02-11T07:11:35.208Z,45.00
2019-02-11T07:14:03.930Z,45.00
2019-02-11T07:16:32.749Z,45.20
2019-02-11T07:19:02.228Z,45.10
2019-02-11T07:21:32.013Z,45.10
2019-02-11T07:24:01.199Z,45.00
2019-02-11T07:26:29.990Z,44.90
2019-02-11T07:28:59.632Z,45.10
2019-02-11T07:31:29.270Z,45.50
2019-02-11T07:33:58.556Z,45.40
2019-02-11T07:36:27.336Z,44.60
2019-02-11T07:38:56.179Z,44.60
2019-02-11T07:41:29.135Z,44.60
2019-02-11T07:44:02.015Z,44.60
2019-02-11T07:46:36.841Z,44.40
2019-02-11T07:49:06.192Z,45.10
2019-02-11T07:51:42.128Z,44.40
2019-02-11T07:54:04.370Z,44.50
2019-02-11T07:56:33.165Z,44.20
2019-02-11T07:59:02.233Z,44.20
2019-02-11T08:01:31.448Z,44.20
2019-02-11T08:04:00.549Z,44.20
2019-02-11T08:06:30.585Z,44.10
2019-02-11T08:09:00.081Z,44.20
2019-02-11T08:11:29.807Z,44.10
2019-02-11T08:13:58.968Z,44.20
2019-02-11T08:16:28.080Z,44.20
2019-02-11T08:18:56.883Z,44.10
2019-02-11T08:21:25.572Z,43.90
2019-02-11T08:23:54.256Z,44.00
2019-02-11T08:26:22.714Z,43.80
2019-02-11T08:28:51.428Z,43.70
2019-02-11T08:31:21.346Z,43.90
2019-02-11T08:33:52.076Z,44.50
2019-02-11T08:36:21.263Z,44.40
2019-02-11T08:38:50.333Z,44.40
2019-02-11T08:41:19.444Z,45.00
2019-02-11T08:43:48.873Z,45.10
2019-02-11T08:46:18.004Z,45.20
2019-02-11T08:48:46.475Z,45.20
2019-02-11T08:51:16.550Z,44.90
2019-02-11T08:53:45.584Z,44.80
2019-02-11T08:56:15.077Z,44.80
2019-02-11T08:58:44.360Z,44.50
2019-02-11T09:01:15.624Z,44.30
2019-02-11T09:03:45.136Z,44.20
2019-02-11T09:06:14.659Z,44.00
2019-02-11T09:08:43.772Z,44.20
2019-02-11T09:11:13.871Z,44.10
2019-02-11T09:13:43.076Z,44.10
2019-02-11T09:16:11.792Z,43.80
2019-02-11T09:18:42.618Z,43.70
2019-02-11T09:21:12.249Z,43.80
2019-02-11T09:23:41.796Z,44.50
2019-02-11T09:26:10.534Z,43.80
2019-02-11T09:28:40.290Z,43.70
2019-02-11T09:31:09.428Z,43.70
2019-02-11T09:33:38.892Z,43.60
2019-02-11T09:36:07.636Z,43.60
2019-02-11T09:38:37.115Z,43.60
2019-02-11T09:41:06.258Z,43.50
2019-02-11T09:43:35.299Z,43.50
2019-02-11T09:46:04.902Z,43.30
2019-02-11T09:48:35.150Z,43.40
2019-02-11T09:51:05.432Z,43.40
2019-02-11T09:53:34.611Z,43.20
2019-02-11T09:56:03.640Z,43.50
2019-02-11T09:58:34.043Z,43.50
2019-02-11T10:01:02.755Z,43.60
2019-02-11T10:03:32.016Z,43.60
2019-02-11T10:06:02.439Z,43.90
2019-02-11T10:08:32.710Z,43.80
2019-02-11T10:13:30.533Z,43.60
2019-02-11T10:16:00.068Z,43.50
2019-02-11T10:18:29.224Z,43.10
2019-02-11T10:20:58.120Z,43.30
2019-02-11T10:23:27.335Z,43.40
2019-02-11T10:25:56.715Z,43.20
2019-02-11T10:28:26.232Z,43.20
2019-02-11T10:30:55.344Z,43.00
2019-02-11T10:33:25.289Z,43.00
2019-02-11T10:35:55.156Z,43.00
2019-02-11T10:38:24.278Z,43.10
2019-02-11T10:40:53.794Z,43.10
2019-02-11T10:43:23.111Z,43.10
2019-02-11T10:45:52.714Z,43.20
2019-02-11T10:48:22.097Z,43.10
2019-02-11T10:50:51.783Z,43.20
2019-02-11T10:53:21.222Z,43.10
2019-02-11T10:55:50.451Z,43.10
2019-02-11T10:58:19.717Z,43.20
2019-02-11T11:00:49.214Z,43.20
2019-02-11T11:03:18.421Z,43.30
2019-02-11T11:05:47.439Z,43.00
2019-02-11T11:08:16.882Z,43.00
2019-02-11T11:10:46.372Z,43.10
2019-02-11T11:13:15.881Z,43.10
2019-02-11T11:15:44.876Z,43.40
2019-02-11T11:18:14.097Z,43.10
2019-02-11T11:20:43.330Z,43.10
2019-02-11T11:23:12.581Z,43.10
2019-02-11T11:25:42.391Z,43.00
2019-02-11T11:28:11.909Z,43.10
2019-02-11T11:30:41.310Z,42.90
2019-02-11T11:33:11.059Z,42.80
2019-02-11T11:35:40.048Z,42.60
2019-02-11T11:38:09.294Z,42.80
2019-02-11T11:40:39.275Z,42.80
2019-02-11T11:43:08.527Z,42.70
2019-02-11T11:45:37.767Z,42.80
2019-02-11T11:48:06.898Z,43.00
2019-02-11T11:50:37.346Z,43.00
2019-02-11T11:53:06.806Z,43.10
2019-02-11T11:55:36.261Z,43.40
2019-02-11T11:58:05.192Z,42.50
2019-02-11T12:00:34.395Z,42.70
2019-02-11T12:03:05.415Z,42.00
2019-02-11T12:05:32.834Z,41.90
2019-02-11T12:08:02.176Z,42.60
2019-02-11T12:10:31.929Z,41.50
2019-02-11T12:13:20.410Z,41.50
2019-02-11T12:15:31.197Z,41.80
2019-02-11T12:18:00.141Z,41.60
2019-02-11T12:20:33.043Z,41.40
2019-02-11T12:22:58.694Z,41.90
2019-02-11T12:25:27.837Z,41.90
2019-02-11T12:27:57.687Z,41.80
2019-02-11T12:30:26.989Z,42.20
2019-02-11T12:32:56.922Z,42.40
2019-02-11T12:35:26.489Z,42.60
2019-02-11T12:37:56.351Z,42.50
2019-02-11T12:40:25.742Z,42.60
2019-02-11T12:42:54.887Z,42.30
2019-02-11T12:45:24.474Z,42.60
2019-02-11T12:47:53.357Z,42.60
2019-02-11T12:50:22.498Z,42.60
2019-02-11T12:52:52.118Z,42.50
2019-02-11T12:55:21.153Z,42.40
2019-02-11T12:57:50.825Z,42.20
2019-02-11T13:00:21.443Z,42.20
2019-02-11T13:02:50.347Z,42.10
2019-02-11T13:05:22.844Z,42.50
2019-02-11T13:07:48.442Z,42.10
2019-02-11T13:10:18.171Z,41.90
2019-02-11T13:12:47.333Z,41.90
2019-02-11T13:15:41.342Z,41.60
2019-02-11T13:17:45.995Z,41.50
2019-02-11T13:20:14.817Z,41.90
2019-02-11T13:22:44.370Z,41.70
2019-02-11T13:25:14.741Z,41.60
2019-02-11T13:27:44.655Z,41.80
2019-02-11T13:30:16.742Z,41.90
2019-02-11T13:32:45.721Z,41.60
2019-02-11T13:35:15.062Z,41.70
2019-02-11T13:37:44.701Z,41.70
2019-02-11T13:40:13.402Z,41.50
2019-02-11T13:42:42.656Z,41.10
2019-02-11T13:45:13.704Z,41.40
2019-02-11T13:47:53.609Z,41.30
2019-02-11T13:50:15.946Z,41.30
2019-02-11T13:52:45.405Z,41.10
2019-02-11T13:55:14.236Z,41.30
2019-02-11T13:57:43.760Z,40.60
2019-02-11T14:00:16.841Z,41.20
2019-02-11T14:02:50.286Z,40.50
2019-02-11T14:05:19.992Z,40.50
2019-02-11T14:07:49.534Z,40.90
2019-02-11T14:10:19.125Z,40.80
2019-02-11T14:12:48.903Z,40.60
2019-02-11T14:15:20.508Z,40.50
2019-02-11T14:17:48.093Z,40.50
2019-02-11T14:20:22.082Z,40.20
2019-02-11T14:22:51.583Z,40.20
2019-02-11T14:25:39.085Z,40.30
2019-02-11T14:27:50.176Z,40.70
2019-02-11T14:30:20.431Z,40.40
2019-02-11T14:35:18.638Z,40.10
2019-02-11T14:37:47.458Z,40.30
2019-02-11T14:40:17.223Z,40.40
2019-02-11T14:42:46.832Z,40.40
2019-02-11T14:45:16.456Z,40.30
2019-02-11T14:47:46.022Z,40.30
2019-02-11T14:50:15.633Z,40.10
2019-02-11T14:52:45.266Z,39.60
2019-02-11T14:55:15.071Z,39.60
2019-02-11T14:57:44.194Z,40.00
2019-02-11T15:00:19.225Z,39.80
2019-02-11T15:02:49.204Z,40.20
2019-02-11T15:05:18.810Z,39.80
2019-02-11T15:07:48.376Z,39.80
2019-02-11T15:10:19.478Z,40.00
2019-02-11T15:12:47.269Z,40.20
2019-02-11T15:15:16.844Z,40.00
2019-02-11T15:17:46.795Z,40.20
2019-02-11T15:20:16.098Z,39.90
2019-02-11T15:22:46.005Z,40.20
2019-02-11T15:25:16.888Z,40.40
2019-02-11T15:27:46.282Z,40.50
2019-02-11T15:30:17.387Z,40.60
2019-02-11T15:32:46.587Z,40.50
2019-02-11T15:35:16.208Z,40.10
2019-02-11T15:37:45.165Z,40.20
2019-02-11T15:47:07.843Z,40.40
2019-02-11T15:49:37.596Z,40.80
2019-02-11T15:52:07.875Z,40.30
2019-02-11T15:54:37.785Z,41.30
2019-02-11T15:57:08.767Z,40.60
2019-02-11T15:59:38.452Z,40.60
2019-02-11T16:02:07.979Z,40.60
2019-02-11T16:04:40.461Z,40.50
2019-02-11T16:07:09.413Z,40.80
2019-02-11T16:09:39.086Z,40.70
2019-02-11T16:12:08.584Z,40.60
2019-02-11T16:14:38.484Z,40.40
2019-02-11T16:17:07.755Z,40.60
2019-02-11T16:19:37.550Z,40.50
2019-02-11T16:22:07.290Z,40.60
2019-02-11T16:24:36.931Z,40.20
2019-02-11T16:27:06.422Z,40.20
2019-02-11T16:29:35.789Z,40.10
2019-02-11T16:32:05.471Z,40.50
2019-02-11T16:34:35.024Z,40.40
2019-02-11T16:37:04.187Z,40.40
2019-02-11T16:39:33.943Z,41.60
2019-02-11T16:42:03.613Z,40.40
2019-02-11T16:44:33.127Z,40.60
2019-02-11T16:47:02.410Z,40.80
2019-02-11T16:49:31.645Z,40.90
2019-02-11T16:52:01.378Z,40.40
2019-02-11T16:54:31.045Z,41.30
2019-02-11T16:57:00.044Z,40.50
2019-02-11T16:59:29.383Z,40.70
2019-02-11T17:01:58.570Z,40.80
2019-02-11T17:04:27.457Z,40.90
2019-02-11T17:06:57.092Z,40.90
2019-02-11T17:09:26.343Z,40.90
2019-02-11T17:11:55.618Z,40.90
2019-02-11T17:14:24.783Z,40.70
2019-02-11T17:16:54.201Z,40.60
2019-02-11T17:19:23.464Z,40.40
2019-02-11T17:21:52.594Z,40.30
2019-02-11T17:24:21.808Z,40.30
2019-02-11T17:26:51.072Z,40.10
2019-02-11T17:29:20.684Z,40.20
2019-02-11T17:31:50.128Z,40.00
2019-02-11T17:34:20.003Z,40.00
2019-02-11T17:36:49.178Z,39.80
2019-02-11T17:39:18.088Z,39.80
2019-02-11T17:41:47.845Z,39.70
2019-02-11T17:44:17.172Z,39.60
2019-02-11T17:46:46.362Z,39.70
2019-02-11T17:49:17.749Z,39.40
2019-02-11T17:51:44.799Z,39.40
2019-02-11T17:54:14.358Z,39.30
2019-02-11T17:56:43.477Z,39.20
2019-02-11T17:59:12.767Z,39.30
2019-02-11T18:01:42.133Z,39.10
2019-02-11T18:04:11.530Z,39.00
2019-02-11T18:06:40.691Z,39.00
2019-02-11T18:09:10.344Z,39.10
2019-02-11T18:11:39.860Z,39.00
2019-02-11T18:14:09.473Z,38.90
2019-02-11T18:16:39.209Z,38.70
2019-02-11T18:19:08.034Z,38.80
2019-02-11T18:21:37.059Z,38.80
2019-02-11T18:24:07.285Z,38.90
2019-02-11T18:26:36.137Z,38.90
2019-02-11T18:31:34.508Z,39.00
2019-02-11T18:34:03.712Z,39.00
2019-02-11T18:36:32.931Z,38.80
2019-02-11T18:41:31.190Z,38.80
2019-02-11T18:44:00.823Z,38.80
2019-02-11T18:46:30.122Z,38.70
2019-02-11T18:48:59.604Z,38.80
2019-02-11T18:51:28.788Z,38.80
2019-02-11T18:53:58.839Z,38.80
2019-02-11T18:56:28.544Z,38.90
2019-02-11T18:58:57.746Z,38.90
2019-02-11T19:03:56.551Z,38.80
2019-02-11T19:06:26.108Z,39.00
2019-02-11T19:08:55.235Z,39.00
2019-02-11T19:11:23.989Z,39.20
2019-02-11T19:13:53.637Z,39.30
2019-02-11T19:18:51.760Z,40.10
2019-02-11T19:21:21.337Z,39.40
2019-02-11T19:23:50.852Z,39.40
2019-02-11T19:26:20.038Z,39.40
2019-02-11T19:31:18.151Z,39.40
2019-02-11T19:33:47.213Z,39.40
2019-02-11T19:36:16.543Z,39.50
2019-02-11T19:38:46.155Z,39.50
2019-02-11T19:41:15.682Z,39.50
2019-02-11T19:43:46.529Z,39.50
2019-02-11T19:46:16.143Z,39.60
2019-02-11T19:48:45.899Z,39.50
2019-02-11T19:51:15.039Z,39.60
2019-02-11T19:53:43.902Z,39.70
2019-02-11T19:56:13.654Z,39.70
2019-02-11T19:58:42.500Z,39.70
2019-02-11T20:01:11.713Z,40.40
2019-02-11T20:03:40.490Z,39.60
2019-02-11T20:06:09.499Z,39.70
2019-02-11T20:08:39.610Z,39.70
2019-02-11T20:11:09.214Z,39.80
2019-02-11T20:13:38.726Z,39.70
2019-02-11T20:16:08.306Z,39.80
2019-02-11T20:18:38.085Z,39.90
2019-02-11T20:21:07.628Z,39.90
2019-02-11T20:23:37.280Z,39.80
2019-02-11T20:26:07.467Z,39.90
2019-02-11T20:28:36.959Z,39.90
2019-02-11T20:31:06.504Z,39.90
2019-02-11T20:33:35.562Z,39.90
2019-02-11T20:36:04.620Z,39.90
2019-02-11T20:38:33.886Z,40.00
2019-02-11T20:41:03.127Z,39.90
2019-02-11T20:43:32.373Z,40.00
2019-02-11T20:46:02.059Z,40.10
2019-02-11T20:48:31.730Z,40.00
2019-02-11T20:51:00.704Z,40.00
2019-02-11T20:53:33.185Z,40.00
2019-02-11T20:56:02.358Z,40.00
2019-02-11T20:58:32.073Z,40.00
2019-02-11T21:01:03.788Z,40.70
2019-02-11T21:03:33.234Z,40.00
2019-02-11T21:06:02.805Z,40.10
2019-02-11T21:08:32.142Z,40.00
2019-02-11T21:11:01.603Z,39.90
2019-02-11T21:13:30.884Z,40.00
2019-02-11T21:15:59.867Z,39.90
2019-02-11T21:18:29.064Z,39.90
2019-02-11T21:20:58.432Z,39.90
2019-02-11T21:23:28.166Z,39.90
2019-02-11T21:25:57.413Z,39.90
2019-02-11T21:28:27.143Z,39.90
2019-02-11T21:30:56.376Z,40.30
2019-02-11T21:33:25.904Z,39.90
2019-02-11T21:35:56.746Z,39.80
2019-02-11T21:38:26.120Z,39.90
2019-02-11T21:40:56.251Z,40.00
2019-02-11T21:43:25.453Z,40.30
2019-02-11T21:45:55.041Z,40.10
2019-02-11T21:48:24.655Z,40.00
2019-02-11T21:50:54.188Z,40.00
2019-02-11T21:53:24.355Z,39.90
2019-02-11T21:55:54.028Z,39.90
